»·PEaware :: N3452E KLAS-KRNO

N3452E :: KLAS-KRNO

FLIGHT INFORMATION

Flight Status: Arrived
Operator: Privately registered:
United States
More flights under this callsign
Pilot: John C. (27555)
Aircraft: CANADAIR CL-600 CHALLENGER
(CL60)
More flights by this aircraft type
Origin: KLAS Harry Reid Intl
United States
Destination: KRNO Reno/Tahoe Intl
United States
More flights between these airports :: More routes between these airports
Route: JOHKR3 KENNO RUSME2
File this flight plan on PilotEdge
Remarks:
Altitude:
(Current/Filed)
36,000ft
Speed:
(Current/Filed)
470kts
Departed: 02-Oct-22 06:16 PM
Arrived: 02-Oct-22 07:18 PM
Distance/Time
Traveled:
300nm/1:01
Distance/Time
To Go:
Arrived

Flight Plot

Page will automatically refresh every two minutes.

Flight plan parsing failed; only flown route is shown


Map Options




Map Legend


Flown Route
Filed Route
Departure Airport
Arrival Airport
Navaid (VOR, NDB)
Fix

Horizontal Profiles

Position Reports

Time Latitude Longitude Heading Altitude Ground
Speed
02-Oct-22 17:49 36.080711 -115.170728 135 2173ft 0kts
02-Oct-22 17:50 36.080711 -115.170728 135 2173ft 0kts
02-Oct-22 17:51 36.080711 -115.170728 135 2173ft 0kts
02-Oct-22 17:52 36.080711 -115.170728 135 2173ft 0kts
02-Oct-22 17:53 36.080711 -115.170728 135 2173ft 0kts
02-Oct-22 17:54 36.080711 -115.170727 135 2173ft 0kts
02-Oct-22 17:55 36.080711 -115.170727 135 2173ft 0kts
02-Oct-22 17:56 36.080711 -115.170727 135 2173ft 0kts
02-Oct-22 17:57 36.080711 -115.170727 135 2173ft 0kts
02-Oct-22 17:58 36.080711 -115.170727 135 2173ft 0kts
02-Oct-22 17:59 36.080711 -115.170727 135 2173ft 0kts
02-Oct-22 18:00 36.080711 -115.170727 135 2173ft 0kts
02-Oct-22 18:01 36.080711 -115.170727 135 2173ft 0kts
02-Oct-22 18:02 36.080711 -115.170727 135 2173ft 0kts
02-Oct-22 18:03 36.080711 -115.170727 135 2173ft 0kts
02-Oct-22 18:04 36.080711 -115.170727 135 2173ft 0kts
02-Oct-22 18:05 36.080711 -115.170727 135 2173ft 0kts
02-Oct-22 18:06 36.080711 -115.170727 135 2173ft 0kts
02-Oct-22 18:07 36.080711 -115.170727 135 2173ft 0kts
02-Oct-22 18:08 36.081995 -115.168964 24 2167ft 17kts
02-Oct-22 18:09 36.087869 -115.165605 25 2144ft 25kts
02-Oct-22 18:10 36.095193 -115.161401 24 2109ft 24kts
02-Oct-22 18:11 36.099383 -115.159023 37 2095ft 12kts
02-Oct-22 18:12 36.099842 -115.157866 74 2090ft 0kts
02-Oct-22 18:13 36.099842 -115.157866 74 2090ft 0kts
02-Oct-22 18:14 36.099842 -115.157866 74 2090ft 0kts
02-Oct-22 18:15 36.097028 -115.157934 204 2095ft 84kts
02-Oct-22 18:16 36.049203 -115.184866 204 4326ft 227kts
02-Oct-22 18:17 35.991535 -115.215998 207 7505ft 233kts
02-Oct-22 18:18 35.944223 -115.274383 233 10637ft 246kts
02-Oct-22 18:19 35.894733 -115.346563 249 11593ft 315kts
02-Oct-22 18:20 35.867150 -115.444456 254 14263ft 281kts
02-Oct-22 18:21 35.876264 -115.543421 282 16774ft 297kts
02-Oct-22 18:22 35.893726 -115.644184 274 19470ft 294kts
02-Oct-22 18:23 35.892795 -115.748123 270 21903ft 308kts
02-Oct-22 18:24 35.894140 -115.858322 271 24321ft 325kts
02-Oct-22 18:25 35.917566 -115.966363 312 27036ft 349kts
02-Oct-22 18:26 35.988294 -116.053295 313 29658ft 364kts
02-Oct-22 18:27 36.061889 -116.144167 313 32048ft 375kts
02-Oct-22 18:28 36.136856 -116.237158 313 34150ft 383kts
02-Oct-22 18:29 36.211276 -116.329613 313 36003ft 381kts
02-Oct-22 18:30 36.290245 -116.427730 314 36028ft 423kts
02-Oct-22 18:31 36.378807 -116.533064 315 36032ft 450kts
02-Oct-22 18:32 36.469540 -116.639915 316 36038ft 450kts
02-Oct-22 18:33 36.563764 -116.746910 316 36047ft 449kts
02-Oct-22 18:34 36.656088 -116.852129 316 36054ft 448kts
02-Oct-22 18:35 36.749564 -116.954462 324 36054ft 449kts
02-Oct-22 18:36 36.860614 -117.027154 331 36062ft 451kts
02-Oct-22 18:37 36.972152 -117.098311 330 36062ft 450kts
02-Oct-22 18:38 37.083565 -117.170178 330 36065ft 449kts
02-Oct-22 18:39 37.194155 -117.242053 330 36089ft 447kts
02-Oct-22 18:40 37.304046 -117.315831 324 36111ft 445kts
02-Oct-22 18:41 37.398590 -117.415241 318 36116ft 444kts
02-Oct-22 18:42 37.492486 -117.516587 319 36113ft 443kts
02-Oct-22 18:43 37.595852 -117.601028 327 36114ft 443kts
02-Oct-22 18:44 37.700680 -117.683533 326 36114ft 441kts
02-Oct-22 18:45 37.804750 -117.765970 326 36118ft 440kts
02-Oct-22 18:46 37.908302 -117.848423 326 36136ft 440kts
02-Oct-22 18:47 37.994636 -117.954343 298 36141ft 440kts
02-Oct-22 18:48 38.040866 -118.099354 293 35232ft 444kts
02-Oct-22 18:49 38.087777 -118.242903 300 33711ft 436kts
02-Oct-22 18:50 38.147279 -118.376050 301 32206ft 428kts
02-Oct-22 18:51 38.204649 -118.504068 301 30650ft 412kts
02-Oct-22 18:52 38.260723 -118.628283 301 28653ft 399kts
02-Oct-22 18:53 38.315595 -118.749419 300 26643ft 390kts
02-Oct-22 18:54 38.369172 -118.867920 301 24901ft 382kts
02-Oct-22 18:55 38.421747 -118.984617 301 23616ft 376kts
02-Oct-22 18:56 38.473824 -119.100597 301 22631ft 373kts
02-Oct-22 18:57 38.527085 -119.213023 304 21634ft 353kts
02-Oct-22 18:58 38.578220 -119.311338 304 20709ft 322kts
02-Oct-22 18:59 38.627602 -119.406960 304 19697ft 318kts
02-Oct-22 19:00 38.676193 -119.501419 304 18696ft 315kts
02-Oct-22 19:01 38.723985 -119.594626 304 17691ft 310kts
02-Oct-22 19:02 38.771146 -119.686732 304 16694ft 307kts
02-Oct-22 19:03 38.826275 -119.767207 341 15673ft 304kts
02-Oct-22 19:04 38.911515 -119.770808 358 14734ft 304kts
02-Oct-22 19:05 38.989103 -119.770399 357 14244ft 253kts
02-Oct-22 19:06 39.055830 -119.770285 357 13792ft 240kts
02-Oct-22 19:07 39.122537 -119.769755 358 13342ft 248kts
02-Oct-22 19:08 39.188651 -119.767409 357 11923ft 209kts
02-Oct-22 19:09 39.240320 -119.767419 358 10394ft 167kts
02-Oct-22 19:10 39.282358 -119.767309 0 9256ft 144kts
02-Oct-22 19:11 39.322438 -119.767243 359 8318ft 142kts
02-Oct-22 19:12 39.361947 -119.767100 359 7379ft 141kts
02-Oct-22 19:13 39.400748 -119.767005 0 6502ft 140kts
02-Oct-22 19:14 39.439126 -119.766734 0 5574ft 135kts
02-Oct-22 19:15 39.476552 -119.766795 358 4833ft 134kts
02-Oct-22 19:16 39.507097 -119.766826 358 4423ft 54kts
02-Oct-22 19:17 39.510994 -119.765652 92 4423ft 0kts
02-Oct-22 19:18 39.510077 -119.765612 203 4423ft 8kts
02-Oct-22 19:19 39.506950 -119.765714 179 4423ft 11kts
02-Oct-22 19:20 39.503041 -119.765712 180 4423ft 17kts
02-Oct-22 19:21 39.500937 -119.764616 77 4423ft 4kts

Navigation Log

Ident Type
Flight plan parsing failed, navigation log unavailable